Time;durP1;ratioP1;P1;durP2;ratioP2;P2;SDS_P1;SDS_P2;PMS_P1;PMS_P2;Temp;Humidity;BMP_temperature;BMP_pressure;BME280_temperature;BME280_humidity;BME280_pressure;Samples;Min_cycle;Max_cycle;Signal;HPM_P1;HPM_P2
2022/07/05 00:00:17;;;;;;;0.47;0.47;;;17.40;52.80;;;;;;5035928;28;20040;-69
2022/07/05 00:02:43;;;;;;;0.57;0.40;;;17.40;52.80;;;;;;5029611;28;20120;-69
2022/07/05 00:05:08;;;;;;;0.77;0.50;;;17.40;53.00;;;;;;5023585;28;20641;-69
2022/07/05 00:07:34;;;;;;;0.68;0.60;;;17.40;53.10;;;;;;5016076;28;20041;-69
2022/07/05 00:09:59;;;;;;;0.68;0.45;;;17.40;53.20;;;;;;5031374;28;20025;-69
2022/07/05 00:12:28;;;;;;;0.63;0.57;;;17.30;53.20;;;;;;4960976;28;20032;-70
2022/07/05 00:14:54;;;;;;;1.10;0.52;;;17.30;53.20;;;;;;5012424;28;20033;-70
2022/07/05 00:17:19;;;;;;;0.95;0.50;;;17.30;53.40;;;;;;4964573;28;20457;-70
2022/07/05 00:19:45;;;;;;;0.70;0.50;;;17.20;53.50;;;;;;5000266;28;20036;-69
2022/07/05 00:22:10;;;;;;;1.08;0.60;;;17.20;53.60;;;;;;5010949;28;20025;-69
2022/07/05 00:24:36;;;;;;;0.82;0.40;;;17.20;53.70;;;;;;5022865;28;20087;-70
2022/07/05 00:27:02;;;;;;;1.30;0.47;;;17.10;53.90;;;;;;5012946;28;20071;-70
2022/07/05 00:29:27;;;;;;;3.10;0.60;;;17.10;53.90;;;;;;5028831;28;20033;-72
2022/07/05 00:31:53;;;;;;;0.50;0.50;;;17.10;53.90;;;;;;4993340;28;20045;-69
2022/07/05 00:34:18;;;;;;;0.93;0.47;;;17.00;54.10;;;;;;5023611;28;21452;-69
2022/07/05 00:36:44;;;;;;;1.25;0.50;;;16.90;54.20;;;;;;4999040;28;20900;-69
2022/07/05 00:39:10;;;;;;;1.60;0.50;;;16.80;54.40;;;;;;4992184;28;20830;-70
2022/07/05 00:41:35;;;;;;;1.98;0.50;;;16.80;54.60;;;;;;5012766;28;20587;-69
2022/07/05 00:44:03;;;;;;;1.80;0.50;;;16.80;54.70;;;;;;4984220;28;20053;-70
2022/07/05 00:46:28;;;;;;;0.82;0.55;;;16.80;54.70;;;;;;5002060;28;20069;-70
2022/07/05 00:48:54;;;;;;;2.60;0.70;;;16.80;54.80;;;;;;5007120;28;20108;-69
2022/07/05 00:51:21;;;;;;;3.70;0.57;;;16.80;54.90;;;;;;4995812;28;20055;-69
2022/07/05 00:53:47;;;;;;;0.32;0.30;;;16.80;55.00;;;;;;4988685;28;20061;-69
2022/07/05 00:56:13;;;;;;;1.88;0.50;;;16.80;55.00;;;;;;4988748;28;20038;-69
2022/07/05 00:58:38;;;;;;;1.67;0.50;;;16.80;55.10;;;;;;4982588;28;20499;-69
2022/07/05 01:01:05;;;;;;;2.75;0.70;;;16.80;55.20;;;;;;5018141;28;20058;-69
2022/07/05 01:03:31;;;;;;;1.25;0.50;;;16.70;55.20;;;;;;5012944;28;20045;-71
2022/07/05 01:05:56;;;;;;;0.55;0.55;;;16.60;55.20;;;;;;4987133;28;20687;-70
2022/07/05 01:08:22;;;;;;;5.15;0.60;;;16.60;55.30;;;;;;4981515;28;20468;-70
2022/07/05 01:10:48;;;;;;;1.30;0.50;;;16.50;55.50;;;;;;5002878;28;20041;-71
2022/07/05 01:13:14;;;;;;;0.45;0.40;;;16.60;55.70;;;;;;5014233;28;20490;-71
2022/07/05 01:15:39;;;;;;;2.60;0.60;;;16.50;55.70;;;;;;5011232;28;20021;-69
2022/07/05 01:18:05;;;;;;;0.47;0.47;;;16.50;55.90;;;;;;5000825;28;20033;-70
2022/07/05 01:20:30;;;;;;;3.35;0.75;;;16.40;56.00;;;;;;5029726;28;20833;-69
2022/07/05 01:22:57;;;;;;;0.65;0.50;;;16.40;56.00;;;;;;5015577;28;20041;-69
2022/07/05 01:25:23;;;;;;;1.23;0.70;;;16.40;56.10;;;;;;5017422;28;20032;-70
2022/07/05 01:27:49;;;;;;;1.25;0.43;;;16.30;56.20;;;;;;5005017;28;20037;-69
2022/07/05 01:30:15;;;;;;;1.05;0.45;;;16.30;56.40;;;;;;5009178;28;20044;-70
2022/07/05 01:32:40;;;;;;;1.08;0.60;;;16.30;56.50;;;;;;5025916;28;20041;-69
2022/07/05 01:35:07;;;;;;;3.65;0.80;;;16.20;56.50;;;;;;5008765;28;20042;-70
2022/07/05 01:37:33;;;;;;;1.98;0.52;;;16.20;56.80;;;;;;5024068;28;20057;-69
2022/07/05 01:39:58;;;;;;;1.45;0.60;;;16.10;56.70;;;;;;5007467;28;20116;-70
2022/07/05 01:42:24;;;;;;;1.48;0.50;;;16.10;56.90;;;;;;5027195;28;20125;-70
2022/07/05 01:44:49;;;;;;;1.52;0.60;;;16.10;56.90;;;;;;4997676;28;20041;-70
2022/07/05 01:47:15;;;;;;;1.13;0.75;;;16.10;56.90;;;;;;5017382;28;20074;-69
2022/07/05 01:49:43;;;;;;;0.60;0.60;;;16.10;57.10;;;;;;5018171;28;20033;-70
2022/07/05 01:52:10;;;;;;;4.43;0.77;;;16.10;57.10;;;;;;5012082;28;20036;-69
2022/07/05 01:54:36;;;;;;;2.33;0.70;;;16.00;57.90;;;;;;5014722;28;20064;-69
2022/07/05 01:57:02;;;;;;;1.90;0.68;;;16.10;57.90;;;;;;5016912;28;20056;-70
2022/07/05 01:59:28;;;;;;;3.25;0.65;;;16.00;57.30;;;;;;5014402;28;20048;-71
2022/07/05 02:01:53;;;;;;;0.80;0.60;;;16.00;57.30;;;;;;5008986;28;20039;-69
2022/07/05 02:04:19;;;;;;;2.88;0.93;;;16.00;57.40;;;;;;4997602;28;20040;-71
2022/07/05 02:06:47;;;;;;;1.88;0.60;;;16.00;57.60;;;;;;4990413;28;20037;-69
2022/07/05 02:09:12;;;;;;;3.00;0.60;;;15.90;57.60;;;;;;5017665;28;20507;-69
2022/07/05 02:11:38;;;;;;;1.10;0.60;;;15.90;57.60;;;;;;5017629;28;20045;-70
2022/07/05 02:14:03;;;;;;;0.70;0.68;;;15.90;57.70;;;;;;5018215;28;20041;-71
2022/07/05 02:16:29;;;;;;;1.23;0.80;;;15.80;57.80;;;;;;5015002;28;20048;-70
2022/07/05 02:18:55;;;;;;;1.17;0.50;;;15.80;57.80;;;;;;5019286;28;20037;-69
2022/07/05 02:21:20;;;;;;;0.60;0.50;;;15.90;57.90;;;;;;5011249;28;20040;-69
2022/07/05 02:23:46;;;;;;;1.58;0.55;;;15.80;57.90;;;;;;5002143;28;20116;-70
2022/07/05 02:26:11;;;;;;;0.95;0.55;;;15.80;58.00;;;;;;5027762;28;20033;-69
2022/07/05 02:28:37;;;;;;;2.58;0.52;;;15.80;58.00;;;;;;5010060;28;20145;-72
2022/07/05 02:31:02;;;;;;;5.55;1.02;;;15.80;58.10;;;;;;5016420;28;20041;-70
2022/07/05 02:33:28;;;;;;;2.63;0.80;;;15.80;58.10;;;;;;5018250;28;20535;-70
2022/07/05 02:35:53;;;;;;;3.85;0.57;;;15.80;58.20;;;;;;5014331;28;20119;-70
2022/07/05 02:38:19;;;;;;;1.98;0.60;;;15.80;58.20;;;;;;4992960;28;20173;-70
2022/07/05 02:40:44;;;;;;;0.85;0.70;;;15.70;58.30;;;;;;5030035;28;20450;-69
2022/07/05 02:43:10;;;;;;;2.20;0.60;;;15.70;58.30;;;;;;5012257;28;20037;-69
2022/07/05 02:45:35;;;;;;;1.50;0.70;;;15.70;58.30;;;;;;4981444;28;20740;-71
2022/07/05 02:48:01;;;;;;;1.15;0.57;;;15.70;58.50;;;;;;5013445;28;20669;-69
2022/07/05 02:50:27;;;;;;;0.98;0.57;;;15.60;58.60;;;;;;5022504;28;20037;-69
2022/07/05 02:52:52;;;;;;;0.50;0.50;;;15.60;58.60;;;;;;5016771;28;20189;-70
2022/07/05 02:55:18;;;;;;;4.47;0.65;;;15.60;58.60;;;;;;5011229;28;20080;-70
2022/07/05 02:57:43;;;;;;;2.20;1.23;;;15.60;58.80;;;;;;5007581;28;20049;-70
2022/07/05 03:00:10;;;;;;;2.38;0.52;;;15.60;59.40;;;;;;5014132;28;20047;-72
2022/07/05 03:02:35;;;;;;;1.15;0.55;;;15.60;58.80;;;;;;5007330;28;20037;-70
2022/07/05 03:05:04;;;;;;;0.77;0.60;;;15.60;58.80;;;;;;4999661;28;20044;-72
2022/07/05 03:07:29;;;;;;;2.60;0.98;;;15.60;58.80;;;;;;4987101;28;20078;-71
2022/07/05 03:09:55;;;;;;;1.85;0.60;;;15.60;58.90;;;;;;4997902;28;20034;-69
2022/07/05 03:12:20;;;;;;;0.63;0.60;;;15.60;58.90;;;;;;5012324;28;20042;-69
2022/07/05 03:14:46;;;;;;;2.92;0.80;;;15.50;58.90;;;;;;5012157;28;20124;-69
2022/07/05 03:17:11;;;;;;;1.83;0.70;;;15.50;59.00;;;;;;4996976;28;20512;-69
2022/07/05 03:19:37;;;;;;;1.88;0.70;;;15.40;59.20;;;;;;4989430;28;20262;-70
2022/07/05 03:22:03;;;;;;;1.17;0.60;;;15.40;59.30;;;;;;4992880;28;20492;-69
2022/07/05 03:24:28;;;;;;;0.50;0.50;;;15.40;59.50;;;;;;4987337;28;20028;-69
2022/07/05 03:26:54;;;;;;;0.93;0.50;;;15.30;59.50;;;;;;4995563;28;20070;-69
2022/07/05 03:29:19;;;;;;;1.77;0.60;;;15.30;59.50;;;;;;5021302;28;20033;-69
2022/07/05 03:31:45;;;;;;;1.85;0.80;;;15.20;59.60;;;;;;5009291;28;20025;-70
2022/07/05 03:34:11;;;;;;;3.22;0.80;;;15.20;59.70;;;;;;5011855;28;20037;-70
2022/07/05 03:36:37;;;;;;;1.15;0.60;;;15.20;59.90;;;;;;4995345;28;20052;-70
2022/07/05 03:39:02;;;;;;;2.13;0.60;;;15.20;59.90;;;;;;5017092;28;20127;-70
2022/07/05 03:41:28;;;;;;;1.42;0.73;;;15.20;59.90;;;;;;5026987;28;20128;-71
2022/07/05 03:43:53;;;;;;;1.10;0.50;;;15.20;60.00;;;;;;5011290;28;20041;-71
2022/07/05 03:46:19;;;;;;;0.80;0.65;;;15.10;60.00;;;;;;5002256;28;20534;-69
2022/07/05 03:48:44;;;;;;;0.60;0.60;;;15.20;60.20;;;;;;5009563;28;20071;-68
2022/07/05 03:51:10;;;;;;;1.05;0.60;;;15.20;60.30;;;;;;5002366;28;20062;-70
2022/07/05 03:53:35;;;;;;;1.05;0.70;;;15.20;60.40;;;;;;5012020;28;20797;-69
2022/07/05 03:56:01;;;;;;;3.03;0.88;;;15.20;60.30;;;;;;5014825;28;20071;-69
2022/07/05 03:58:27;;;;;;;2.22;0.73;;;15.10;60.40;;;;;;4997328;28;20120;-70
2022/07/05 04:00:52;;;;;;;2.55;0.90;;;15.10;60.40;;;;;;5016039;28;20628;-69
2022/07/05 04:03:18;;;;;;;2.40;0.60;;;15.10;60.60;;;;;;5021093;28;20495;-69
2022/07/05 04:05:43;;;;;;;2.90;0.93;;;15.10;60.60;;;;;;5008883;28;20111;-69
2022/07/05 04:08:09;;;;;;;0.90;0.60;;;15.10;60.70;;;;;;5029601;28;20079;-70
2022/07/05 04:10:34;;;;;;;0.60;0.60;;;15.10;60.80;;;;;;5013829;28;20164;-69
2022/07/05 04:13:00;;;;;;;0.65;0.60;;;15.10;60.80;;;;;;5013068;28;20083;-70
2022/07/05 04:15:25;;;;;;;2.35;0.70;;;15.10;60.80;;;;;;5011730;28;20057;-70
2022/07/05 04:17:54;;;;;;;2.45;0.90;;;15.10;60.90;;;;;;5010850;28;20041;-70
2022/07/05 04:20:21;;;;;;;1.38;0.88;;;15.10;61.00;;;;;;5016352;28;20028;-68
2022/07/05 04:22:47;;;;;;;4.65;1.00;;;15.10;61.00;;;;;;4986682;28;20429;-69
2022/07/05 04:25:18;;;;;;;1.50;0.90;;;15.10;61.10;;;;;;5011977;28;20410;-70
2022/07/05 04:27:44;;;;;;;0.52;0.50;;;15.10;61.00;;;;;;5003925;28;20038;-70
2022/07/05 04:30:10;;;;;;;0.70;0.70;;;15.10;61.20;;;;;;4977926;28;20034;-70
2022/07/05 04:32:36;;;;;;;1.98;0.60;;;15.10;61.30;;;;;;5017330;28;20048;-71
2022/07/05 04:35:01;;;;;;;2.17;0.70;;;15.10;61.30;;;;;;5003267;28;20048;-69
2022/07/05 04:37:27;;;;;;;1.70;0.80;;;15.10;61.50;;;;;;5029440;28;20033;-69
2022/07/05 04:39:52;;;;;;;1.50;0.88;;;15.10;61.50;;;;;;5016324;28;20164;-69
2022/07/05 04:42:18;;;;;;;2.28;0.65;;;15.10;61.50;;;;;;4991660;28;20036;-69
2022/07/05 04:44:44;;;;;;;2.05;0.70;;;15.20;61.70;;;;;;5003155;28;20042;-70
2022/07/05 04:47:09;;;;;;;0.88;0.88;;;15.20;61.80;;;;;;5021768;28;20103;-70
2022/07/05 04:49:35;;;;;;;1.00;0.80;;;15.20;61.70;;;;;;5011795;28;20121;-69
2022/07/05 04:52:00;;;;;;;2.97;0.90;;;15.20;61.70;;;;;;5023490;28;20107;-70
2022/07/05 04:54:26;;;;;;;2.05;0.70;;;15.30;61.70;;;;;;5005293;28;20120;-70
2022/07/05 04:56:51;;;;;;;0.60;0.60;;;15.30;61.60;;;;;;4993304;28;20029;-69
2022/07/05 04:59:17;;;;;;;1.52;0.80;;;15.30;61.60;;;;;;5010902;28;20048;-71
2022/07/05 05:01:42;;;;;;;3.72;0.80;;;15.40;62.00;;;;;;5017290;28;20138;-69
2022/07/05 05:04:08;;;;;;;4.75;0.90;;;15.40;61.90;;;;;;4988901;28;20029;-70
2022/07/05 05:06:33;;;;;;;2.60;0.90;;;15.40;61.80;;;;;;4994394;28;20033;-68
2022/07/05 05:08:59;;;;;;;1.70;1.10;;;15.50;62.00;;;;;;4996733;28;20044;-69
2022/07/05 05:11:24;;;;;;;1.17;0.90;;;15.50;62.00;;;;;;5003169;28;20073;-70
2022/07/05 05:13:50;;;;;;;2.92;0.82;;;15.50;61.90;;;;;;5005387;28;20025;-68
2022/07/05 05:16:15;;;;;;;1.17;0.90;;;15.60;62.00;;;;;;5017203;28;20102;-70
2022/07/05 05:18:41;;;;;;;1.60;0.90;;;15.60;62.10;;;;;;5009553;28;20044;-69
2022/07/05 05:21:07;;;;;;;1.85;1.15;;;15.60;61.90;;;;;;5008304;28;20310;-71
2022/07/05 05:23:32;;;;;;;2.45;0.88;;;15.70;61.90;;;;;;5026698;28;20041;-69
2022/07/05 05:25:58;;;;;;;1.67;1.10;;;15.80;62.00;;;;;;5026716;28;20040;-69
2022/07/05 05:28:23;;;;;;;1.50;0.75;;;15.80;61.90;;;;;;5012021;28;20037;-69
2022/07/05 05:30:49;;;;;;;5.22;1.10;;;15.90;61.90;;;;;;4982150;28;20039;-69
2022/07/05 05:33:14;;;;;;;1.67;0.82;;;15.90;61.70;;;;;;5017175;28;20036;-70
2022/07/05 05:35:40;;;;;;;2.28;1.00;;;16.00;61.80;;;;;;5004353;28;20500;-69
2022/07/05 05:38:05;;;;;;;0.80;0.70;;;16.00;61.70;;;;;;4975789;28;20045;-69
2022/07/05 05:40:32;;;;;;;4.20;1.08;;;16.10;61.50;;;;;;5010987;28;20123;-70
2022/07/05 05:42:58;;;;;;;3.47;0.88;;;16.10;61.50;;;;;;5015153;28;20038;-69
2022/07/05 05:45:24;;;;;;;3.53;1.00;;;16.20;61.60;;;;;;5011252;28;20060;-70
2022/07/05 05:47:53;;;;;;;4.25;0.88;;;16.30;61.60;;;;;;5004289;28;20029;-70
2022/07/05 05:50:23;;;;;;;4.03;1.15;;;16.30;61.80;;;;;;5013450;28;20044;-69
2022/07/05 05:52:49;;;;;;;1.63;0.98;;;16.40;61.90;;;;;;5007445;28;20044;-71
2022/07/05 05:55:14;;;;;;;2.97;0.88;;;16.50;61.90;;;;;;5010356;28;20508;-70
2022/07/05 05:57:40;;;;;;;2.55;1.30;;;16.50;61.90;;;;;;5026308;28;20027;-71
2022/07/05 06:00:06;;;;;;;2.45;1.23;;;16.60;62.80;;;;;;4972477;28;20779;-69
2022/07/05 06:02:31;;;;;;;5.75;1.45;;;16.70;61.90;;;;;;5001681;28;20036;-68
2022/07/05 06:04:57;;;;;;;5.13;1.40;;;16.80;61.60;;;;;;5010608;28;20037;-70
2022/07/05 06:07:22;;;;;;;3.70;1.50;;;16.80;61.50;;;;;;4998404;28;20034;-69
2022/07/05 06:09:48;;;;;;;4.15;1.42;;;16.90;61.20;;;;;;5001793;28;20398;-69
2022/07/05 06:12:14;;;;;;;6.32;1.63;;;17.00;61.10;;;;;;5031029;28;20501;-69
2022/07/05 06:14:39;;;;;;;2.95;1.63;;;17.10;61.00;;;;;;5007505;28;20036;-69
2022/07/05 06:17:05;;;;;;;2.97;1.27;;;17.20;61.10;;;;;;4968004;28;20546;-69
2022/07/05 06:19:30;;;;;;;6.57;1.42;;;17.30;61.00;;;;;;5000672;28;20833;-69
2022/07/05 06:21:56;;;;;;;2.22;1.10;;;17.40;60.90;;;;;;4986709;28;20585;-69
2022/07/05 06:24:21;;;;;;;4.95;1.58;;;17.60;60.80;;;;;;5005514;28;20042;-71
2022/07/05 06:26:47;;;;;;;6.65;1.30;;;17.70;60.70;;;;;;4985695;28;20493;-69
2022/07/05 06:29:12;;;;;;;4.20;1.50;;;17.80;60.50;;;;;;5007187;28;20068;-71
2022/07/05 06:31:38;;;;;;;1.77;1.00;;;18.00;60.20;;;;;;5005694;28;20033;-70
2022/07/05 06:34:03;;;;;;;5.93;1.23;;;18.00;59.90;;;;;;4966754;28;20044;-69
2022/07/05 06:36:29;;;;;;;4.22;1.13;;;18.20;59.70;;;;;;4971550;28;20481;-70
2022/07/05 06:38:54;;;;;;;1.40;1.15;;;18.30;59.40;;;;;;5001732;28;20671;-69
2022/07/05 06:41:20;;;;;;;1.42;1.10;;;18.40;59.20;;;;;;5011374;28;20048;-71
2022/07/05 06:43:45;;;;;;;2.88;0.90;;;18.60;59.00;;;;;;5003817;28;20053;-70
2022/07/05 06:46:11;;;;;;;5.90;1.05;;;18.70;59.00;;;;;;5020327;28;20030;-70
2022/07/05 06:48:36;;;;;;;5.22;1.17;;;18.90;58.80;;;;;;5006557;28;20117;-70
2022/07/05 06:51:02;;;;;;;2.28;0.90;;;19.00;58.50;;;;;;5008053;28;20041;-69
2022/07/05 06:53:28;;;;;;;2.85;0.82;;;19.20;58.80;;;;;;5037769;28;20175;-70
2022/07/05 06:55:53;;;;;;;2.33;0.88;;;19.40;57.80;;;;;;5009533;28;20043;-70
2022/07/05 06:58:19;;;;;;;2.40;0.90;;;19.50;57.50;;;;;;5000518;28;20038;-69
2022/07/05 07:00:44;;;;;;;1.50;0.60;;;19.70;57.20;;;;;;5002164;28;20025;-69
2022/07/05 07:03:10;;;;;;;0.77;0.77;;;19.90;56.90;;;;;;4986709;28;20045;-71
2022/07/05 07:05:35;;;;;;;2.97;0.90;;;20.10;56.60;;;;;;5010398;28;20471;-69
2022/07/05 07:10:45;;;;;;;1.85;0.75;;;20.40;55.80;;;;;;4995858;28;20433;-71
2022/07/05 07:13:10;;;;;;;4.03;0.90;;;20.60;55.40;;;;;;4994976;28;20025;-70
2022/07/05 07:15:37;;;;;;;2.15;0.77;;;20.80;55.00;;;;;;5014922;28;20041;-71
2022/07/05 07:18:03;;;;;;;0.70;0.70;;;21.00;54.70;;;;;;4991796;28;20064;-70
2022/07/05 07:20:29;;;;;;;3.90;0.90;;;21.20;54.30;;;;;;4982536;28;20057;-70
2022/07/05 07:22:54;;;;;;;3.45;0.90;;;21.30;53.90;;;;;;4993618;28;20079;-70
2022/07/05 07:25:20;;;;;;;5.78;1.00;;;21.50;53.60;;;;;;5015136;28;20087;-70
2022/07/05 07:27:48;;;;;;;1.33;0.60;;;21.60;53.20;;;;;;4986724;28;20037;-71
2022/07/05 07:30:14;;;;;;;3.20;1.02;;;21.80;52.80;;;;;;4994317;28;20036;-70
2022/07/05 07:32:40;;;;;;;1.70;0.70;;;22.00;52.50;;;;;;4969123;28;20517;-70
2022/07/05 07:35:06;;;;;;;3.17;0.80;;;22.20;52.20;;;;;;4955574;28;20047;-71
2022/07/05 07:37:32;;;;;;;3.28;0.70;;;22.40;51.90;;;;;;4985614;28;20030;-71
2022/07/05 07:39:58;;;;;;;1.80;0.70;;;22.60;51.70;;;;;;5000384;28;20043;-70
2022/07/05 07:42:24;;;;;;;1.13;0.90;;;22.80;51.30;;;;;;5004179;28;20075;-73
2022/07/05 07:44:49;;;;;;;4.05;1.00;;;23.00;50.90;;;;;;5005499;28;20049;-70
2022/07/05 07:47:15;;;;;;;1.20;0.82;;;23.10;50.50;;;;;;5048710;28;20051;-70
2022/07/05 07:49:41;;;;;;;1.98;0.88;;;23.30;50.00;;;;;;5031212;28;20036;-69
2022/07/05 07:52:06;;;;;;;6.57;0.80;;;23.50;49.50;;;;;;5031622;28;20028;-72
2022/07/05 07:54:32;;;;;;;1.45;0.60;;;23.70;49.10;;;;;;5012278;28;20036;-71
2022/07/05 07:56:59;;;;;;;0.63;0.50;;;23.90;48.60;;;;;;5014699;28;20123;-70
2022/07/05 07:59:25;;;;;;;1.67;0.95;;;24.10;48.20;;;;;;4995920;28;20120;-70
2022/07/05 08:01:50;;;;;;;2.05;0.50;;;24.30;47.60;;;;;;5021936;28;20037;-72
2022/07/05 08:04:16;;;;;;;1.67;0.50;;;24.50;47.10;;;;;;5033497;28;20041;-70
2022/07/05 08:06:42;;;;;;;2.25;0.70;;;24.70;46.70;;;;;;5027981;28;20044;-71
2022/07/05 08:09:08;;;;;;;1.52;0.60;;;24.90;46.30;;;;;;5042071;28;20036;-70
2022/07/05 08:11:33;;;;;;;0.93;0.60;;;25.00;45.90;;;;;;5030543;28;20052;-69
2022/07/05 08:13:59;;;;;;;2.88;0.70;;;25.20;45.70;;;;;;5017958;28;20060;-72
2022/07/05 08:16:24;;;;;;;1.80;0.60;;;25.40;45.40;;;;;;5032076;28;20393;-69
2022/07/05 08:21:38;;;;;;;1.42;0.68;;;25.70;44.80;;;;;;5033013;28;20036;-70
2022/07/05 08:24:13;;;;;;;4.47;0.65;;;25.90;44.40;;;;;;5037614;28;20225;-71
2022/07/05 08:26:39;;;;;;;3.85;0.63;;;26.10;43.40;;;;;;5025851;28;20068;-71
2022/07/05 08:29:06;;;;;;;1.75;0.68;;;26.30;43.70;;;;;;5026913;28;20095;-71
2022/07/05 08:31:32;;;;;;;0.60;0.55;;;26.40;43.30;;;;;;5025653;28;20045;-71
2022/07/05 08:33:58;;;;;;;3.17;0.88;;;26.60;42.90;;;;;;5033056;28;20040;-71
2022/07/05 08:36:24;;;;;;;2.47;0.90;;;26.80;42.50;;;;;;5009554;28;20052;-71
2022/07/05 08:38:50;;;;;;;2.72;0.63;;;26.90;42.30;;;;;;5026717;28;20044;-72
2022/07/05 08:41:18;;;;;;;1.65;0.55;;;27.10;42.00;;;;;;5033100;28;20047;-70
2022/07/05 08:43:45;;;;;;;0.50;0.50;;;27.20;41.60;;;;;;5031296;28;20045;-72
2022/07/05 08:46:11;;;;;;;1.90;0.60;;;27.40;41.40;;;;;;5026112;28;20116;-72
2022/07/05 08:48:41;;;;;;;4.75;0.75;;;27.60;41.20;;;;;;5029975;28;20725;-73
2022/07/05 08:51:14;;;;;;;1.08;0.75;;;27.80;40.80;;;;;;5011550;28;20131;-73
2022/07/05 08:53:40;;;;;;;2.45;0.60;;;27.90;40.30;;;;;;5037902;28;20130;-73
2022/07/05 08:56:09;;;;;;;1.85;0.68;;;27.90;39.90;;;;;;5023319;28;20040;-71
2022/07/05 08:58:35;;;;;;;2.08;0.40;;;27.90;39.60;;;;;;5028752;28;20045;-71
2022/07/05 09:01:01;;;;;;;2.17;0.65;;;28.00;39.50;;;;;;5003649;28;20493;-71
2022/07/05 09:03:31;;;;;;;1.85;0.70;;;28.00;39.40;;;;;;5001850;28;20049;-71
2022/07/05 09:05:56;;;;;;;2.53;0.70;;;28.10;39.10;;;;;;5021475;28;20106;-72
2022/07/05 09:08:22;;;;;;;6.05;0.70;;;28.20;39.00;;;;;;5011255;28;20040;-71
2022/07/05 09:10:47;;;;;;;2.85;0.50;;;28.40;38.70;;;;;;5023290;28;20043;-70
2022/07/05 09:13:13;;;;;;;6.90;0.60;;;28.60;38.50;;;;;;5005588;28;26531;-72
2022/07/05 09:15:39;;;;;;;4.50;0.70;;;28.80;38.30;;;;;;5031869;28;20029;-72
2022/07/05 09:18:04;;;;;;;3.00;0.57;;;29.00;37.90;;;;;;5033070;28;20044;-71
2022/07/05 09:20:30;;;;;;;1.27;0.60;;;29.20;37.70;;;;;;5031172;28;20040;-71
2022/07/05 09:22:56;;;;;;;6.28;0.60;;;29.30;37.50;;;;;;5005742;28;20121;-72
2022/07/05 09:25:23;;;;;;;2.58;0.65;;;29.40;37.10;;;;;;5012281;28;20033;-71
2022/07/05 09:27:53;;;;;;;3.00;0.55;;;29.30;37.00;;;;;;5031161;28;20073;-72
2022/07/05 09:30:34;;;;;;;9.63;0.77;;;29.30;36.90;;;;;;5038295;28;20036;-71
2022/07/05 09:33:13;;;;;;;;;;;29.30;36.20;;;;;;5035602;28;20040;-72
2022/07/05 09:35:39;;;;;;;0.75;0.63;;;29.30;36.90;;;;;;5012367;28;19928;-73
2022/07/05 09:38:06;;;;;;;2.30;0.70;;;29.50;37.00;;;;;;5020654;28;20039;-72
2022/07/05 09:40:32;;;;;;;3.35;0.73;;;29.70;36.70;;;;;;5026985;28;20078;-71
2022/07/05 09:43:17;;;;;;;5.80;0.70;;;29.90;36.50;;;;;;5034173;28;20037;-73
2022/07/05 09:46:01;;;;;;;2.25;0.50;;;30.10;35.10;;;;;;5029389;28;20036;-72
2022/07/05 09:48:28;;;;;;;9.07;0.95;;;30.40;34.90;;;;;;5032015;28;20033;-73
2022/07/05 09:51:05;;;;;;;3.63;1.17;;;30.40;35.30;;;;;;5045063;28;20319;-73
2022/07/05 09:53:50;;;;;;;2.38;0.90;;;30.40;35.10;;;;;;5033959;28;20044;-74
2022/07/05 09:56:17;;;;;;;1.13;0.60;;;30.50;34.10;;;;;;5036215;28;20044;-73
2022/07/05 09:58:43;;;;;;;5.55;0.70;;;30.70;34.80;;;;;;5014011;28;20040;-74
2022/07/05 10:01:30;;;;;;;2.75;0.70;;;30.90;34.50;;;;;;5025054;28;20024;-74
2022/07/05 10:03:57;;;;;;;0.50;0.45;;;31.10;33.40;;;;;;5019650;28;20116;-74
2022/07/05 10:06:23;;;;;;;0.70;0.50;;;31.40;33.90;;;;;;5029180;28;20098;-74
2022/07/05 10:08:49;;;;;;;1.55;0.60;;;31.60;33.60;;;;;;5004563;28;20044;-74
2022/07/05 10:11:19;;;;;;;3.50;0.50;;;31.80;33.10;;;;;;4991903;28;20025;-74
2022/07/05 10:13:48;;;;;;;1.45;0.40;;;32.10;32.80;;;;;;5047395;28;20024;-73
2022/07/05 10:16:15;;;;;;;1.13;0.40;;;32.20;32.60;;;;;;5042451;28;20152;-73
2022/07/05 10:18:40;;;;;;;2.13;0.50;;;32.40;32.50;;;;;;5033617;28;20047;-74
2022/07/05 10:21:07;;;;;;;2.88;0.40;;;32.50;32.30;;;;;;5033717;28;20033;-74
2022/07/05 10:23:32;;;;;;;1.60;0.80;;;32.50;32.20;;;;;;5050466;28;20033;-73
2022/07/05 10:25:58;;;;;;;2.88;0.47;;;32.50;32.20;;;;;;5023538;28;20060;-74
2022/07/05 10:28:23;;;;;;;3.58;0.50;;;32.60;32.30;;;;;;5018509;28;20048;-73
2022/07/05 10:30:49;;;;;;;5.72;0.65;;;32.50;32.00;;;;;;5043601;28;20060;-75
2022/07/05 10:33:19;;;;;;;3.75;0.50;;;32.60;32.20;;;;;;5019552;28;20053;-73
2022/07/05 10:35:44;;;;;;;2.00;0.50;;;32.70;32.00;;;;;;5015632;28;20082;-74
2022/07/05 10:38:10;;;;;;;4.28;0.85;;;32.80;31.90;;;;;;5024854;28;20045;-73
2022/07/05 10:40:36;;;;;;;1.85;0.80;;;32.90;31.90;;;;;;5036577;28;20036;-74
2022/07/05 10:43:02;;;;;;;3.05;0.57;;;33.00;31.50;;;;;;5025409;28;20029;-74
2022/07/05 10:45:28;;;;;;;3.47;0.75;;;33.10;31.40;;;;;;4985097;28;20025;-75
2022/07/05 10:48:13;;;;;;;9.63;0.57;;;33.10;31.30;;;;;;5048312;28;20033;-74
2022/07/05 10:50:52;;;;;;;3.17;0.80;;;33.10;30.40;;;;;;5031609;28;20110;-73
2022/07/05 10:53:21;;;;;;;7.30;0.85;;;33.10;30.50;;;;;;5004077;28;20034;-74
2022/07/05 10:55:57;;;;;;;3.70;0.50;;;33.20;31.00;;;;;;5044132;28;20029;-75
2022/07/05 10:58:32;;;;;;;2.85;0.50;;;33.30;30.80;;;;;;5038508;28;20041;-74
2022/07/05 11:01:15;;;;;;;0.40;0.40;;;33.40;30.40;;;;;;5030006;28;20605;-73
2022/07/05 11:04:11;;;;;;;1.77;0.32;;;33.60;29.70;;;;;;5049258;28;20500;-74
2022/07/05 11:06:39;;;;;;;1.38;0.52;;;33.70;29.80;;;;;;5014987;28;20030;-75
2022/07/05 11:09:10;;;;;;;1.50;0.43;;;34.00;29.90;;;;;;5042455;28;20024;-74
2022/07/05 11:11:40;;;;;;;0.45;0.43;;;34.10;29.50;;;;;;5052382;28;20036;-75
2022/07/05 11:14:21;;;;;;;2.42;0.50;;;34.20;29.50;;;;;;5042603;28;20119;-75
2022/07/05 11:16:47;;;;;;;0.85;0.40;;;34.40;28.70;;;;;;5039870;28;20035;-73
2022/07/05 11:19:16;;;;;;;1.08;0.57;;;34.50;29.20;;;;;;5007946;28;20064;-73
2022/07/05 11:22:03;;;;;;;0.70;0.40;;;34.70;28.90;;;;;;5052640;28;20552;-74
2022/07/05 11:24:35;;;;;;;2.35;0.50;;;34.90;28.40;;;;;;5030371;28;20539;-74
2022/07/05 11:27:10;;;;;;;1.45;0.40;;;35.00;28.30;;;;;;5014157;28;20037;-74
2022/07/05 11:29:55;;;;;;;1.15;0.70;;;35.00;28.40;;;;;;5004495;28;20425;-74
2022/07/05 11:32:34;;;;;;;1.63;0.50;;;35.10;27.80;;;;;;5005238;28;20469;-73
2022/07/05 11:35:19;;;;;;;2.00;0.45;;;35.10;27.70;;;;;;5017902;28;20074;-74
2022/07/05 11:38:07;;;;;;;2.38;0.50;;;35.30;27.50;;;;;;5041094;28;20037;-74
2022/07/05 11:40:33;;;;;;;0.63;0.40;;;35.30;27.10;;;;;;5031122;28;20100;-75
2022/07/05 11:42:59;;;;;;;1.80;0.60;;;35.40;27.80;;;;;;5027177;28;20141;-74
2022/07/05 11:45:24;;;;;;;1.23;0.30;;;35.50;27.80;;;;;;5040725;28;20664;-74
2022/07/05 11:47:55;;;;;;;1.95;0.60;;;35.60;27.80;;;;;;5029508;28;20859;-74
2022/07/05 11:50:25;;;;;;;1.83;0.60;;;35.80;27.70;;;;;;5032116;28;20527;-73
2022/07/05 11:52:51;;;;;;;;;;;35.90;27.40;;;;;;5029735;28;20045;-74
2022/07/05 11:55:17;;;;;;;2.30;0.43;;;36.10;27.60;;;;;;5038829;28;19955;-74
2022/07/05 11:57:49;;;;;;;1.90;0.50;;;36.20;27.60;;;;;;5034211;28;20118;-74
2022/07/05 12:00:28;;;;;;;4.68;0.50;;;36.20;27.10;;;;;;5029869;28;20057;-73
2022/07/05 12:02:54;;;;;;;3.20;0.60;;;36.30;26.70;;;;;;5016186;28;20084;-74
2022/07/05 12:05:19;;;;;;;0.73;0.50;;;36.30;27.00;;;;;;5036270;28;20166;-74
2022/07/05 12:07:51;;;;;;;1.27;0.68;;;36.20;26.80;;;;;;5036329;28;20551;-74
2022/07/05 12:13:08;;;;;;;3.13;0.60;;;36.30;26.90;;;;;;5027834;28;20101;-73
2022/07/05 12:15:34;;;;;;;1.17;0.70;;;36.40;26.70;;;;;;5027809;28;20493;-74
2022/07/05 12:18:03;;;;;;;1.73;0.60;;;36.50;26.70;;;;;;5017603;28;20167;-74
2022/07/05 12:20:29;;;;;;;1.20;0.45;;;36.60;26.60;;;;;;5027324;28;20082;-74
2022/07/05 12:22:54;;;;;;;1.88;0.55;;;36.70;26.60;;;;;;5027808;28;20036;-73
2022/07/05 12:25:21;;;;;;;1.23;0.60;;;36.80;26.60;;;;;;5030092;28;20110;-73
2022/07/05 12:27:48;;;;;;;2.42;0.90;;;36.90;26.40;;;;;;5009443;28;20041;-73
2022/07/05 12:30:13;;;;;;;1.60;0.68;;;36.90;26.20;;;;;;5040027;28;20565;-74
2022/07/05 12:33:07;;;;;;;0.57;0.38;;;37.00;26.20;;;;;;5032279;28;20120;-73
2022/07/05 12:35:40;;;;;;;1.85;0.50;;;37.10;25.40;;;;;;5024139;28;20032;-74
2022/07/05 12:38:15;;;;;;;0.98;0.50;;;37.10;25.60;;;;;;5026070;28;20032;-73
2022/07/05 12:40:41;;;;;;;0.65;0.50;;;37.00;25.40;;;;;;5001978;28;20037;-73
2022/07/05 12:43:11;;;;;;;1.80;0.40;;;36.90;25.60;;;;;;5035211;28;20032;-73
2022/07/05 12:45:38;;;;;;;2.30;0.80;;;36.90;25.60;;;;;;5029215;28;20033;-74
2022/07/05 12:48:05;;;;;;;0.88;0.45;;;37.00;25.70;;;;;;5040024;28;20056;-74
2022/07/05 12:50:50;;;;;;;1.17;0.55;;;37.10;25.70;;;;;;5037784;28;20029;-74
2022/07/05 12:58:53;;;;;;;4.80;0.60;;;37.10;25.20;;;;;;5042496;28;20087;-75
2022/07/05 13:01:26;;;;;;;2.58;0.55;;;37.20;25.10;;;;;;5028746;28;20036;-73